createdAt,value
2023-06-17T00:00:58.918Z,20.33
2023-06-17T00:03:26.143Z,20.15
2023-06-17T00:05:53.542Z,20.23
2023-06-17T00:08:21.462Z,20.19
2023-06-17T00:10:48.889Z,20.15
2023-06-17T00:13:22.279Z,20.09
2023-06-17T00:15:52.380Z,20.08
2023-06-17T00:18:21.231Z,19.99
2023-06-17T00:20:49.614Z,19.89
2023-06-17T00:23:17.057Z,19.97
2023-06-17T00:25:44.241Z,19.94
2023-06-17T00:28:11.441Z,19.93
2023-06-17T00:30:38.568Z,19.83
2023-06-17T00:33:06.385Z,19.89
2023-06-17T00:35:36.228Z,19.87
2023-06-17T00:38:03.454Z,19.82
2023-06-17T00:40:33.182Z,19.79
2023-06-17T00:43:00.512Z,19.43
2023-06-17T00:45:27.692Z,19.61
2023-06-17T00:47:55.060Z,19.38
2023-06-17T00:50:22.710Z,19.66
2023-06-17T00:52:54.061Z,19.58
2023-06-17T00:55:22.485Z,19.56
2023-06-17T00:57:50.112Z,19.60
2023-06-17T01:00:17.562Z,19.50
2023-06-17T01:02:46.653Z,19.54
2023-06-17T01:05:18.471Z,19.52
2023-06-17T01:08:04.234Z,19.50
2023-06-17T01:10:41.557Z,19.45
2023-06-17T01:13:10.523Z,19.43
2023-06-17T01:15:38.335Z,19.42
2023-06-17T01:18:08.529Z,19.39
2023-06-17T01:20:37.462Z,19.29
2023-06-17T01:23:06.759Z,19.37
2023-06-17T01:25:36.048Z,19.34
2023-06-17T01:28:20.731Z,19.31
2023-06-17T01:30:49.418Z,19.34
2023-06-17T01:33:17.244Z,19.28
2023-06-17T01:35:56.209Z,19.32
2023-06-17T01:38:52.353Z,19.28
2023-06-17T01:41:25.635Z,19.32
2023-06-17T01:43:55.304Z,19.21
2023-06-17T01:46:23.854Z,19.11
2023-06-17T01:48:54.979Z,19.32
2023-06-17T01:51:22.524Z,19.32
2023-06-17T01:53:49.858Z,19.32
2023-06-17T01:56:16.961Z,19.36
2023-06-17T01:58:44.100Z,19.37
2023-06-17T02:01:12.688Z,19.34
2023-06-17T02:03:43.605Z,19.36
2023-06-17T02:06:11.794Z,19.34
2023-06-17T02:08:39.770Z,19.28
2023-06-17T02:11:07.198Z,19.38
2023-06-17T02:13:34.479Z,19.38
2023-06-17T02:16:01.883Z,19.38
2023-06-17T02:18:29.436Z,19.19
2023-06-17T02:20:56.606Z,19.11
2023-06-17T02:23:23.818Z,19.44
2023-06-17T02:25:53.752Z,19.47
2023-06-17T02:28:20.898Z,19.47
2023-06-17T02:30:48.133Z,19.47
2023-06-17T02:33:19.353Z,19.51
2023-06-17T02:35:47.528Z,19.49
2023-06-17T02:38:15.591Z,19.50
2023-06-17T02:40:42.871Z,19.47
2023-06-17T02:43:10.200Z,19.53
2023-06-17T02:45:37.976Z,19.60
2023-06-17T02:48:05.217Z,19.63
2023-06-17T02:50:32.421Z,19.67
2023-06-17T02:52:59.880Z,19.73
2023-06-17T02:55:30.728Z,19.75
2023-06-17T02:58:02.270Z,19.82
2023-06-17T03:00:37.330Z,19.84
2023-06-17T03:03:04.586Z,19.93
2023-06-17T03:05:31.928Z,19.98
2023-06-17T03:07:59.095Z,20.03
2023-06-17T03:10:26.284Z,20.09
2023-06-17T03:13:02.995Z,20.26
2023-06-17T03:15:30.000Z,20.14
2023-06-17T03:17:57.976Z,20.14
2023-06-17T03:20:29.907Z,20.20
2023-06-17T03:22:57.424Z,20.31
2023-06-17T03:25:24.744Z,20.36
2023-06-17T03:27:54.098Z,20.40
2023-06-17T03:30:24.633Z,20.27
2023-06-17T03:32:51.949Z,20.51
2023-06-17T03:35:19.129Z,20.55
2023-06-17T03:37:46.443Z,20.56
2023-06-17T03:40:14.993Z,20.61
2023-06-17T03:42:43.388Z,20.38
2023-06-17T03:45:11.335Z,20.68
2023-06-17T03:47:38.730Z,20.81
2023-06-17T03:50:07.716Z,20.75
2023-06-17T03:52:35.283Z,20.78
2023-06-17T03:55:02.944Z,20.94
2023-06-17T03:57:31.090Z,20.87
2023-06-17T03:59:58.739Z,21.01
2023-06-17T04:02:26.187Z,21.06
2023-06-17T04:04:53.980Z,21.14
2023-06-17T04:07:22.104Z,21.23
2023-06-17T04:10:01.967Z,21.26
2023-06-17T04:12:36.697Z,21.33
2023-06-17T04:15:07.845Z,21.39
2023-06-17T04:17:39.363Z,21.47
2023-06-17T04:20:16.152Z,21.50
2023-06-17T04:22:44.529Z,21.57
2023-06-17T04:25:13.344Z,21.65
2023-06-17T04:27:45.741Z,21.92
2023-06-17T04:30:15.201Z,22.30
2023-06-17T04:32:44.024Z,22.51
2023-06-17T04:35:14.148Z,22.60
2023-06-17T04:37:55.187Z,22.36
2023-06-17T04:40:26.660Z,22.66
2023-06-17T04:42:54.101Z,22.65
2023-06-17T04:45:23.604Z,22.58
2023-06-17T04:47:56.932Z,22.63
2023-06-17T04:50:25.187Z,22.67
2023-06-17T04:52:53.262Z,22.74
2023-06-17T04:55:23.400Z,22.70
2023-06-17T04:57:51.517Z,22.79
2023-06-17T05:00:38.541Z,22.73
2023-06-17T05:03:06.897Z,22.88
2023-06-17T05:05:34.131Z,22.65
2023-06-17T05:08:01.296Z,22.96
2023-06-17T05:10:28.623Z,22.97
2023-06-17T05:12:55.770Z,22.91
2023-06-17T05:15:23.148Z,23.16
2023-06-17T05:17:51.099Z,23.22
2023-06-17T05:20:18.912Z,23.27
2023-06-17T05:22:46.793Z,23.35
2023-06-17T05:25:14.002Z,23.43
2023-06-17T05:27:41.200Z,23.51
2023-06-17T05:30:10.045Z,23.56
2023-06-17T05:32:41.090Z,23.51
2023-06-17T05:35:08.782Z,23.64
2023-06-17T05:37:35.944Z,23.79
2023-06-17T05:40:05.071Z,23.88
2023-06-17T05:42:33.931Z,23.95
2023-06-17T05:45:01.289Z,24.01
2023-06-17T05:47:31.813Z,24.02
2023-06-17T05:49:58.964Z,24.07
2023-06-17T05:52:28.135Z,24.06
2023-06-17T05:54:55.261Z,24.25
2023-06-17T05:57:22.636Z,24.29
2023-06-17T05:59:49.982Z,24.31
2023-06-17T06:02:18.505Z,24.42
2023-06-17T06:04:45.737Z,24.51
2023-06-17T06:07:13.853Z,24.58
2023-06-17T06:09:41.350Z,24.68
2023-06-17T06:12:09.083Z,24.48
2023-06-17T06:14:37.075Z,24.78
2023-06-17T06:17:05.717Z,24.72
2023-06-17T06:19:32.835Z,24.76
2023-06-17T06:21:59.968Z,24.90
2023-06-17T06:24:27.197Z,25.03
2023-06-17T06:26:54.478Z,25.15
2023-06-17T06:29:22.096Z,25.20
2023-06-17T06:31:49.243Z,25.27
2023-06-17T06:34:18.812Z,25.33
2023-06-17T06:36:46.853Z,25.33
2023-06-17T06:39:15.633Z,25.42
2023-06-17T06:41:43.635Z,25.52
2023-06-17T06:44:26.928Z,25.49
2023-06-17T06:46:56.808Z,25.59
2023-06-17T06:49:23.999Z,25.69
2023-06-17T06:51:51.176Z,25.62
2023-06-17T06:54:18.551Z,25.88
2023-06-17T06:56:46.520Z,26.05
2023-06-17T06:59:13.849Z,26.05
2023-06-17T07:01:40.971Z,25.92
2023-06-17T07:04:08.538Z,26.00
2023-06-17T07:06:36.396Z,26.05
2023-06-17T07:09:07.637Z,26.12
2023-06-17T07:11:35.808Z,26.26
2023-06-17T07:14:03.269Z,26.27
2023-06-17T07:16:31.070Z,26.42
2023-06-17T07:18:58.290Z,26.47
2023-06-17T07:21:25.551Z,26.51
2023-06-17T07:23:52.787Z,26.61
2023-06-17T07:26:21.216Z,26.66
2023-06-17T07:28:48.798Z,26.63
2023-06-17T07:31:16.025Z,26.73
2023-06-17T07:33:43.193Z,26.81
2023-06-17T07:36:10.337Z,26.86
2023-06-17T07:38:37.832Z,26.90
2023-06-17T07:41:05.044Z,26.93
2023-06-17T07:43:32.227Z,26.96
2023-06-17T07:45:59.449Z,26.89
2023-06-17T07:48:26.635Z,27.02
2023-06-17T07:50:53.741Z,26.94
2023-06-17T07:53:21.185Z,26.84
2023-06-17T07:55:49.199Z,26.77
2023-06-17T07:58:16.427Z,26.85
2023-06-17T08:00:43.616Z,26.93
2023-06-17T08:03:11.107Z,26.81
2023-06-17T08:05:38.337Z,26.91
2023-06-17T08:08:05.683Z,26.85
2023-06-17T08:10:33.045Z,26.81
2023-06-17T08:13:00.176Z,26.88
2023-06-17T08:15:28.425Z,26.91
2023-06-17T08:17:55.778Z,26.99
2023-06-17T08:20:23.321Z,27.05
2023-06-17T08:22:50.832Z,27.17
2023-06-17T08:25:17.958Z,27.13
2023-06-17T08:27:49.202Z,27.07
2023-06-17T08:30:16.459Z,27.10
2023-06-17T08:32:43.782Z,27.04
2023-06-17T08:35:11.067Z,27.05
2023-06-17T08:37:38.186Z,27.25
2023-06-17T08:40:05.870Z,27.44
2023-06-17T08:42:34.143Z,27.42
2023-06-17T08:45:01.761Z,27.43
2023-06-17T08:47:33.586Z,27.37
2023-06-17T08:50:01.183Z,27.33
2023-06-17T08:52:34.547Z,27.45
2023-06-17T08:55:03.005Z,27.54
2023-06-17T08:57:33.592Z,27.68
2023-06-17T09:00:01.144Z,27.76
2023-06-17T09:02:35.703Z,27.79
2023-06-17T09:05:03.667Z,27.57
2023-06-17T09:07:32.085Z,27.59
2023-06-17T09:10:10.214Z,27.43
2023-06-17T09:12:40.666Z,27.14
2023-06-17T09:15:09.553Z,27.06
2023-06-17T09:17:40.195Z,27.02
2023-06-17T09:20:17.732Z,26.96
2023-06-17T09:22:47.911Z,27.03
2023-06-17T09:25:16.432Z,26.97
2023-06-17T09:30:25.392Z,27.30
2023-06-17T09:32:53.780Z,27.20
2023-06-17T09:35:21.215Z,27.35
2023-06-17T09:38:03.253Z,27.50
2023-06-17T09:40:34.317Z,27.57
2023-06-17T09:43:20.735Z,27.59
2023-06-17T09:45:56.125Z,27.62
2023-06-17T09:48:26.183Z,27.64
2023-06-17T09:50:58.628Z,27.69
2023-06-17T09:53:30.922Z,27.64
2023-06-17T09:56:01.359Z,27.66
2023-06-17T09:58:30.527Z,27.61
2023-06-17T10:00:58.813Z,27.68
2023-06-17T10:03:26.104Z,27.85
2023-06-17T10:05:56.512Z,27.83
2023-06-17T10:08:25.337Z,27.74
2023-06-17T10:10:53.049Z,27.71
2023-06-17T10:13:21.762Z,27.78
2023-06-17T10:15:50.864Z,27.79
2023-06-17T10:18:20.151Z,27.98
2023-06-17T10:20:50.475Z,28.11
2023-06-17T10:23:22.088Z,28.32
2023-06-17T10:25:49.343Z,28.43
2023-06-17T10:28:17.076Z,28.56
2023-06-17T10:30:46.153Z,28.62
2023-06-17T10:33:13.774Z,28.71
2023-06-17T10:35:45.621Z,28.58
2023-06-17T10:38:34.723Z,28.44
2023-06-17T10:41:02.985Z,28.08
2023-06-17T10:43:37.556Z,27.98
2023-06-17T10:46:05.071Z,27.88
2023-06-17T10:48:36.693Z,27.92
2023-06-17T10:51:09.872Z,27.91
2023-06-17T10:53:38.012Z,27.78
2023-06-17T10:56:08.235Z,28.08
2023-06-17T10:58:37.501Z,28.19
2023-06-17T11:01:07.407Z,28.22
2023-06-17T11:03:35.991Z,28.30
2023-06-17T11:06:05.136Z,28.41
2023-06-17T11:08:33.942Z,28.51
2023-06-17T11:11:18.151Z,28.47
2023-06-17T11:13:51.978Z,28.40
2023-06-17T11:16:19.774Z,28.16
2023-06-17T11:18:49.995Z,28.21
2023-06-17T11:21:18.883Z,28.17
2023-06-17T11:23:46.142Z,28.18
2023-06-17T11:26:14.414Z,28.09
2023-06-17T11:28:41.740Z,28.00
2023-06-17T11:31:09.490Z,27.84
2023-06-17T11:33:40.003Z,27.85
2023-06-17T11:36:11.312Z,27.74
2023-06-17T11:38:39.550Z,27.69
2023-06-17T11:41:06.949Z,27.67
2023-06-17T11:43:34.254Z,27.54
2023-06-17T11:46:03.556Z,27.69
2023-06-17T11:48:35.043Z,27.75
2023-06-17T11:51:02.822Z,27.82
2023-06-17T11:53:39.646Z,27.88
2023-06-17T11:56:08.340Z,27.80
2023-06-17T11:58:39.905Z,27.62
2023-06-17T12:01:08.648Z,27.77
2023-06-17T12:03:38.234Z,27.80
2023-06-17T12:06:06.300Z,27.79
2023-06-17T12:08:35.359Z,27.92
2023-06-17T12:11:26.643Z,28.13
2023-06-17T12:13:55.707Z,28.12
2023-06-17T12:16:25.037Z,28.20
2023-06-17T12:18:53.761Z,28.23
2023-06-17T12:21:22.328Z,28.27
2023-06-17T12:23:54.567Z,28.37
2023-06-17T12:26:26.086Z,28.40
2023-06-17T12:28:54.493Z,28.50
2023-06-17T12:31:23.251Z,28.47
2023-06-17T12:33:51.099Z,28.50
2023-06-17T12:36:18.928Z,28.48
2023-06-17T12:38:47.353Z,28.38
2023-06-17T12:41:14.473Z,28.23
2023-06-17T12:43:42.333Z,28.44
2023-06-17T12:46:09.961Z,28.39
2023-06-17T12:48:37.502Z,28.45
2023-06-17T12:51:05.121Z,28.40
2023-06-17T12:53:32.388Z,28.40
2023-06-17T12:56:00.240Z,28.40
2023-06-17T12:58:27.771Z,28.42
2023-06-17T13:00:55.606Z,28.47
2023-06-17T13:03:22.914Z,28.47
2023-06-17T13:05:52.772Z,28.42
2023-06-17T13:08:20.095Z,28.29
2023-06-17T13:10:47.812Z,28.37
2023-06-17T13:13:14.994Z,28.32
2023-06-17T13:15:42.177Z,28.33
2023-06-17T13:18:09.740Z,28.15
2023-06-17T13:20:37.230Z,28.24
2023-06-17T13:23:05.698Z,28.26
2023-06-17T13:25:33.032Z,28.19
2023-06-17T13:28:00.250Z,28.22
2023-06-17T13:30:27.580Z,27.92
2023-06-17T13:32:54.715Z,28.15
2023-06-17T13:35:22.603Z,28.16
2023-06-17T13:37:50.533Z,28.04
2023-06-17T13:40:18.055Z,28.03
2023-06-17T13:42:45.344Z,28.04
2023-06-17T13:45:17.147Z,28.03
2023-06-17T13:47:44.234Z,28.04
2023-06-17T13:50:11.467Z,27.94
2023-06-17T13:52:38.615Z,27.99
2023-06-17T13:55:06.139Z,27.96
2023-06-17T13:57:33.198Z,27.88
2023-06-17T14:00:00.449Z,27.84
2023-06-17T14:02:27.703Z,27.77
2023-06-17T14:04:55.707Z,27.77
2023-06-17T14:07:22.902Z,27.74
2023-06-17T14:09:50.027Z,27.71
2023-06-17T14:12:17.245Z,27.59
2023-06-17T14:14:46.168Z,27.65
2023-06-17T14:17:14.490Z,27.57
2023-06-17T14:19:41.581Z,27.17
2023-06-17T14:22:10.269Z,27.45
2023-06-17T14:24:39.876Z,27.54
2023-06-17T14:27:34.796Z,27.52
2023-06-17T14:30:03.517Z,27.38
2023-06-17T14:32:35.052Z,27.43
2023-06-17T14:35:02.297Z,27.35
2023-06-17T14:37:33.957Z,27.36
2023-06-17T14:40:01.590Z,27.29
2023-06-17T14:42:32.560Z,27.26
2023-06-17T14:44:59.936Z,27.23
2023-06-17T14:47:27.420Z,27.27
2023-06-17T14:49:54.556Z,27.27
2023-06-17T14:52:21.628Z,27.27
2023-06-17T14:54:48.727Z,27.24
2023-06-17T14:57:15.809Z,27.22
2023-06-17T14:59:43.196Z,27.22
2023-06-17T15:02:22.671Z,27.17
2023-06-17T15:04:49.879Z,27.14
2023-06-17T15:07:16.996Z,27.08
2023-06-17T15:09:44.638Z,27.05
2023-06-17T15:12:15.397Z,27.03
2023-06-17T15:14:42.675Z,26.95
2023-06-17T15:17:09.868Z,27.04
2023-06-17T15:19:37.991Z,27.02
2023-06-17T15:22:05.515Z,26.98
2023-06-17T15:24:32.808Z,26.99
2023-06-17T15:27:00.102Z,26.95
2023-06-17T15:29:27.253Z,26.84
2023-06-17T15:31:54.350Z,26.82
2023-06-17T15:34:21.521Z,26.47
2023-06-17T15:36:48.659Z,26.66
2023-06-17T15:39:19.776Z,26.73
2023-06-17T15:41:48.520Z,26.56
2023-06-17T15:44:16.875Z,26.58
2023-06-17T15:46:44.525Z,26.58
2023-06-17T15:49:12.070Z,26.44
2023-06-17T15:51:39.593Z,26.50
2023-06-17T15:54:07.132Z,26.43
2023-06-17T15:56:37.725Z,26.44
2023-06-17T15:59:05.790Z,26.41
2023-06-17T16:01:33.711Z,26.39
2023-06-17T16:04:30.260Z,26.35
2023-06-17T16:06:57.332Z,26.29
2023-06-17T16:09:24.458Z,26.24
2023-06-17T16:11:51.870Z,26.27
2023-06-17T16:14:19.008Z,26.25
2023-06-17T16:16:46.162Z,26.22
2023-06-17T16:19:13.372Z,26.19
2023-06-17T16:21:40.588Z,26.16
2023-06-17T16:24:07.821Z,26.18
2023-06-17T16:26:35.051Z,26.13
2023-06-17T16:29:02.103Z,26.15
2023-06-17T16:31:29.190Z,26.07
2023-06-17T16:33:56.326Z,26.11
2023-06-17T16:36:23.594Z,26.10
2023-06-17T16:38:50.698Z,26.10
2023-06-17T16:41:17.810Z,25.95
2023-06-17T16:43:44.911Z,26.00
2023-06-17T16:46:12.148Z,25.92
2023-06-17T16:48:39.233Z,25.95
2023-06-17T16:51:07.273Z,25.91
2023-06-17T16:53:35.115Z,25.82
2023-06-17T16:56:02.656Z,25.56
2023-06-17T16:58:30.078Z,25.74
2023-06-17T17:00:57.463Z,25.53
2023-06-17T17:03:24.927Z,25.75
2023-06-17T17:05:52.189Z,25.74
2023-06-17T17:08:19.590Z,25.68
2023-06-17T17:10:46.803Z,25.70
2023-06-17T17:13:14.005Z,25.62
2023-06-17T17:15:41.668Z,25.64
2023-06-17T17:18:09.096Z,25.63
2023-06-17T17:20:36.248Z,25.58
2023-06-17T17:23:04.188Z,25.58
2023-06-17T17:25:31.867Z,25.46
2023-06-17T17:27:58.977Z,25.49
2023-06-17T17:30:26.215Z,25.41
2023-06-17T17:32:55.488Z,25.37
2023-06-17T17:35:23.120Z,25.21
2023-06-17T17:37:50.229Z,25.07
2023-06-17T17:40:17.891Z,25.25
2023-06-17T17:42:46.459Z,25.09
2023-06-17T17:45:13.607Z,25.15
2023-06-17T17:47:40.812Z,25.09
2023-06-17T17:50:08.357Z,25.04
2023-06-17T17:52:35.690Z,25.02
2023-06-17T17:55:03.200Z,24.95
2023-06-17T17:57:33.026Z,24.96
2023-06-17T18:00:00.264Z,24.83
2023-06-17T18:02:27.577Z,24.84
2023-06-17T18:04:55.313Z,24.75
2023-06-17T18:07:22.412Z,24.78
2023-06-17T18:09:49.524Z,24.77
2023-06-17T18:12:17.077Z,24.65
2023-06-17T18:14:44.206Z,24.60
2023-06-17T18:17:11.277Z,24.65
2023-06-17T18:19:39.926Z,24.61
2023-06-17T18:22:07.002Z,24.54
2023-06-17T18:24:34.402Z,24.44
2023-06-17T18:27:01.780Z,24.31
2023-06-17T18:29:28.976Z,24.32
2023-06-17T18:31:56.095Z,24.25
2023-06-17T18:34:23.240Z,24.12
2023-06-17T18:36:50.539Z,23.81
2023-06-17T18:39:17.762Z,24.05
2023-06-17T18:41:44.937Z,24.01
2023-06-17T18:44:13.558Z,23.95
2023-06-17T18:46:41.267Z,23.91
2023-06-17T18:49:11.085Z,23.84
2023-06-17T18:51:38.439Z,23.74
2023-06-17T18:54:05.656Z,23.72
2023-06-17T18:56:32.829Z,23.68
2023-06-17T18:59:00.008Z,23.64
2023-06-17T19:01:27.215Z,23.48
2023-06-17T19:03:54.452Z,23.55
2023-06-17T19:06:21.619Z,23.51
2023-06-17T19:08:49.746Z,23.36
2023-06-17T19:11:17.524Z,23.33
2023-06-17T19:13:44.717Z,23.36
2023-06-17T19:16:12.203Z,23.32
2023-06-17T19:18:39.924Z,23.28
2023-06-17T19:21:08.596Z,23.24
2023-06-17T19:23:35.834Z,23.20
2023-06-17T19:26:02.979Z,23.14
2023-06-17T19:28:30.117Z,23.11
2023-06-17T19:30:57.248Z,23.08
2023-06-17T19:33:24.492Z,22.96
2023-06-17T19:35:51.582Z,22.98
2023-06-17T19:38:18.744Z,22.89
2023-06-17T19:40:45.958Z,22.81
2023-06-17T19:43:14.101Z,22.74
2023-06-17T19:45:44.797Z,22.68
2023-06-17T19:48:12.100Z,22.72
2023-06-17T19:50:39.231Z,22.66
2023-06-17T19:53:07.013Z,22.62
2023-06-17T19:55:34.664Z,22.59
2023-06-17T19:58:01.861Z,22.51
2023-06-17T20:00:29.994Z,22.45
2023-06-17T20:02:57.292Z,22.37
2023-06-17T20:05:24.456Z,22.30
2023-06-17T20:07:51.831Z,22.26
2023-06-17T20:10:19.250Z,22.20
2023-06-17T20:12:46.493Z,22.17
2023-06-17T20:15:13.659Z,22.16
2023-06-17T20:17:41.000Z,22.15
2023-06-17T20:20:08.739Z,22.06
2023-06-17T20:22:36.047Z,22.09
2023-06-17T20:25:03.227Z,22.03
2023-06-17T20:27:33.214Z,22.01
2023-06-17T20:30:00.369Z,22.00
2023-06-17T20:32:27.653Z,21.96
2023-06-17T20:34:54.819Z,21.95
2023-06-17T20:37:21.977Z,21.90
2023-06-17T20:39:49.065Z,21.83
2023-06-17T20:42:16.392Z,21.79
2023-06-17T20:44:43.632Z,21.74
2023-06-17T20:47:11.098Z,21.68
2023-06-17T20:49:38.298Z,21.54
2023-06-17T20:52:05.635Z,21.61
2023-06-17T20:54:32.726Z,21.42
2023-06-17T20:56:59.815Z,21.55
2023-06-17T20:59:27.037Z,21.48
2023-06-17T21:01:54.217Z,21.32
2023-06-17T21:04:21.392Z,21.43
2023-06-17T21:06:48.529Z,21.41
2023-06-17T21:09:15.900Z,21.37
2023-06-17T21:11:43.004Z,21.31
2023-06-17T21:14:10.135Z,21.26
2023-06-17T21:16:37.489Z,21.22
2023-06-17T21:19:04.741Z,21.15
2023-06-17T21:21:31.862Z,21.14
2023-06-17T21:23:59.123Z,21.05
2023-06-17T21:26:26.934Z,21.06
2023-06-17T21:28:56.078Z,21.03
2023-06-17T21:31:23.181Z,21.01
2023-06-17T21:33:51.507Z,20.98
2023-06-17T21:36:18.734Z,20.96
2023-06-17T21:38:45.839Z,20.94
2023-06-17T21:41:12.908Z,20.84
2023-06-17T21:43:40.092Z,20.62
2023-06-17T21:46:08.072Z,20.84
2023-06-17T21:48:35.312Z,20.69
2023-06-17T21:51:02.505Z,20.72
2023-06-17T21:53:29.571Z,20.69
2023-06-17T21:55:56.734Z,20.66
2023-06-17T21:58:23.921Z,20.59
2023-06-17T22:00:51.049Z,20.58
2023-06-17T22:03:23.429Z,20.48
2023-06-17T22:05:52.014Z,20.51
2023-06-17T22:08:24.556Z,20.33
2023-06-17T22:10:54.698Z,20.46
2023-06-17T22:13:21.841Z,20.42
2023-06-17T22:15:49.006Z,20.41
2023-06-17T22:18:16.291Z,20.23
2023-06-17T22:20:43.961Z,20.36
2023-06-17T22:23:11.206Z,20.23
2023-06-17T22:25:38.316Z,20.20
2023-06-17T22:28:05.490Z,20.30
2023-06-17T22:30:32.589Z,20.06
2023-06-17T22:32:59.718Z,20.17
2023-06-17T22:35:27.406Z,20.10
2023-06-17T22:37:54.728Z,20.14
2023-06-17T22:40:24.692Z,20.10
2023-06-17T22:42:51.872Z,20.05
2023-06-17T22:45:19.075Z,19.97
2023-06-17T22:47:46.241Z,20.01
2023-06-17T22:50:13.422Z,20.01
2023-06-17T22:52:40.640Z,19.95
2023-06-17T22:55:08.176Z,19.90
2023-06-17T22:57:39.199Z,19.99
2023-06-17T23:00:08.223Z,19.84
2023-06-17T23:02:36.417Z,19.97
2023-06-17T23:05:05.353Z,19.91
2023-06-17T23:07:32.825Z,19.90
2023-06-17T23:10:00.209Z,19.87
2023-06-17T23:12:27.546Z,19.84
2023-06-17T23:14:54.867Z,19.63
2023-06-17T23:17:22.351Z,19.76
2023-06-17T23:19:49.648Z,19.79
2023-06-17T23:22:17.507Z,19.70
2023-06-17T23:24:47.703Z,19.75
2023-06-17T23:27:16.645Z,19.74
2023-06-17T23:29:44.384Z,19.72
2023-06-17T23:32:11.516Z,19.68
2023-06-17T23:34:38.640Z,19.64
2023-06-17T23:37:06.720Z,19.53
2023-06-17T23:39:33.823Z,19.48
2023-06-17T23:42:00.881Z,19.51
2023-06-17T23:44:28.000Z,19.46
2023-06-17T23:46:55.411Z,19.40
2023-06-17T23:49:22.591Z,19.34
2023-06-17T23:51:49.715Z,19.23
2023-06-17T23:54:16.822Z,19.24
2023-06-17T23:56:43.892Z,19.16
2023-06-17T23:59:11.050Z,19.14
